Time;durP1;ratioP1;P1;durP2;ratioP2;P2;SDS_P1;SDS_P2;PMS_P1;PMS_P2;Temp;Humidity;BMP_temperature;BMP_pressure;BME280_temperature;BME280_humidity;BME280_pressure;Samples;Min_cycle;Max_cycle;Signal;HPM_P1;HPM_P2
2021/07/16 00:01:36;;;;;;;9.55;4.45;;;;;;;23.81;47.17;99677.13;5088499;28;20100;-23
2021/07/16 00:04:02;;;;;;;8.27;4.68;;;;;;;23.92;47.42;99672.16;5088568;28;20061;-24
2021/07/16 00:06:27;;;;;;;9.82;4.60;;;;;;;23.75;47.68;99651.13;5088629;28;20024;-24
2021/07/16 00:08:53;;;;;;;8.70;4.38;;;;;;;24.13;46.83;99672.38;5088454;28;20070;-24
2021/07/16 00:11:19;;;;;;;12.73;5.22;;;;;;;24.22;46.18;99672.38;5070113;28;20403;-24
2021/07/16 00:13:44;;;;;;;10.43;4.93;;;;;;;23.94;47.44;99675.38;5070028;28;20032;-24
2021/07/16 00:16:10;;;;;;;10.88;5.15;;;;;;;24.24;46.61;99668.19;5083041;28;20028;-24
2021/07/16 00:18:35;;;;;;;9.93;4.55;;;;;;;24.02;47.25;99663.69;5088214;28;20028;-24
2021/07/16 00:21:04;;;;;;;9.93;5.38;;;;;;;24.12;47.38;99654.41;5087890;28;20088;-23
2021/07/16 00:23:29;;;;;;;12.65;4.50;;;;;;;23.82;48.14;99669.75;5070189;28;20120;-24
2021/07/16 00:25:55;;;;;;;7.25;4.97;;;;;;;23.73;48.72;99668.91;5087939;28;20055;-24
2021/07/16 00:28:21;;;;;;;10.13;4.57;;;;;;;23.80;48.81;99663.81;5088003;28;20063;-24
2021/07/16 00:30:47;;;;;;;11.73;4.90;;;;;;;23.56;49.66;99675.06;5087767;28;20140;-24
2021/07/16 00:33:12;;;;;;;13.30;4.80;;;;;;;23.85;49.18;99667.19;5069753;28;20041;-24
2021/07/16 00:35:38;;;;;;;8.38;4.53;;;;;;;23.43;50.66;99661.25;5087677;28;20028;-24
2021/07/16 00:38:03;;;;;;;12.05;4.53;;;;;;;22.90;51.73;99653.16;5088060;28;20093;-24
2021/07/16 00:40:29;;;;;;;7.85;4.88;;;;;;;22.92;52.15;99640.06;5088095;28;20085;-24
2021/07/16 00:42:54;;;;;;;9.70;4.45;;;;;;;23.24;51.13;99653.34;5087642;28;20032;-24
2021/07/16 00:45:20;;;;;;;10.52;4.25;;;;;;;23.47;50.41;99661.44;5053257;28;20493;-24
2021/07/16 00:47:46;;;;;;;8.20;4.25;;;;;;;23.56;50.74;99672.34;5087881;28;20094;-24
2021/07/16 00:50:14;;;;;;;9.10;4.53;;;;;;;23.61;50.74;99669.50;5069701;28;20024;-23
2021/07/16 00:52:40;;;;;;;8.50;4.32;;;;;;;23.09;51.21;99656.50;5086994;28;20107;-24
2021/07/16 00:55:06;;;;;;;10.35;4.40;;;;;;;22.89;52.65;99667.88;5052830;28;20055;-24
2021/07/16 00:57:31;;;;;;;7.03;4.72;;;;;;;23.01;51.80;99652.63;5049401;28;20381;-24
2021/07/16 00:59:57;;;;;;;8.68;4.38;;;;;;;22.96;52.28;99663.56;5064985;28;20062;-24
2021/07/16 01:02:22;;;;;;;8.23;4.40;;;;;;;22.66;53.26;99660.53;5087614;28;20085;-24
2021/07/16 01:04:48;;;;;;;9.30;4.28;;;;;;;22.72;53.32;99663.94;5052171;28;20027;-24
2021/07/16 01:07:13;;;;;;;9.82;4.68;;;;;;;22.97;52.13;99648.09;5087933;28;20035;-24
2021/07/16 01:09:39;;;;;;;11.93;4.70;;;;;;;22.86;52.27;99653.78;5087689;28;20039;-24
2021/07/16 01:12:05;;;;;;;10.27;4.63;;;;;;;22.73;52.93;99653.84;5087441;28;20756;-24
2021/07/16 01:14:30;;;;;;;8.63;4.65;;;;;;;23.02;51.80;99645.25;5052625;28;20035;-24
2021/07/16 01:16:56;;;;;;;9.45;4.10;;;;;;;23.21;51.75;99647.72;5067934;28;20032;-24
2021/07/16 01:19:42;;;;;;;11.00;5.00;;;;;;;23.10;51.94;99641.78;5069148;28;20445;-24
2021/07/16 01:22:11;;;;;;;8.68;4.20;;;;;;;23.18;51.97;99654.59;5070693;28;20452;-24
2021/07/16 01:24:37;;;;;;;10.65;4.53;;;;;;;23.44;50.99;99648.47;5069080;28;20115;-24
2021/07/16 01:27:02;;;;;;;9.68;5.32;;;;;;;23.22;51.32;99635.75;5069073;28;20020;-24
2021/07/16 01:29:28;;;;;;;10.60;4.43;;;;;;;23.07;51.86;99647.84;5069217;28;20024;-24
2021/07/16 01:31:53;;;;;;;12.13;4.70;;;;;;;23.42;50.60;99669.75;5087130;28;20032;-24
2021/07/16 01:34:20;;;;;;;8.73;4.30;;;;;;;23.79;49.80;99645.88;5088800;28;20400;-24
2021/07/16 01:36:45;;;;;;;9.13;5.05;;;;;;;24.02;49.56;99666.41;5073367;28;20043;-24
2021/07/16 01:39:11;;;;;;;12.68;5.40;;;;;;;23.84;49.82;99659.34;5073277;28;20028;-24
2021/07/16 01:41:36;;;;;;;8.63;5.07;;;;;;;23.31;51.78;99657.53;5091683;28;20074;-24
2021/07/16 01:44:04;;;;;;;9.55;5.53;;;;;;;22.60;53.35;99631.06;5091326;28;20404;-24
2021/07/16 01:46:29;;;;;;;11.18;4.60;;;;;;;22.59;53.62;99638.41;5090948;28;20442;-24
2021/07/16 01:48:55;;;;;;;13.93;5.00;;;;;;;22.63;53.61;99638.59;5091324;28;20164;-24
2021/07/16 01:51:20;;;;;;;12.35;4.65;;;;;;;23.13;51.99;99643.06;5072942;28;20054;-24
2021/07/16 01:53:46;;;;;;;9.60;4.80;;;;;;;22.87;53.28;99639.06;5090798;28;20056;-24
2021/07/16 01:56:11;;;;;;;10.63;4.50;;;;;;;23.26;52.10;99634.81;5091202;28;20032;-24
2021/07/16 01:58:37;;;;;;;12.23;5.00;;;;;;;23.40;52.21;99644.78;5091137;28;20105;-24
2021/07/16 02:01:02;;;;;;;9.00;5.45;;;;;;;23.66;50.41;99629.34;5072563;28;20126;-24
2021/07/16 02:03:28;;;;;;;16.80;5.20;;;;;;;23.53;51.43;99637.63;5090974;28;20028;-24
2021/07/16 02:05:53;;;;;;;11.52;5.28;;;;;;;23.13;52.28;99634.91;5091004;28;20035;-24
2021/07/16 02:08:20;;;;;;;10.82;4.95;;;;;;;23.25;52.10;99644.09;5072449;28;20577;-24
2021/07/16 02:10:51;;;;;;;13.07;5.20;;;;;;;23.44;51.13;99645.75;5090511;28;20122;-23
2021/07/16 02:13:17;;;;;;;12.25;5.50;;;;;;;22.78;53.29;99630.06;5072847;28;20040;-23
2021/07/16 02:15:44;;;;;;;12.25;5.07;;;;;;;23.49;51.58;99653.78;5090558;28;20084;-24
2021/07/16 02:18:10;;;;;;;9.90;5.33;;;;;;;23.43;51.44;99650.38;5072858;28;20063;-24
2021/07/16 02:20:37;;;;;;;14.43;6.20;;;;;;;23.50;50.38;99628.16;5090346;28;20036;-24
2021/07/16 02:23:06;;;;;;;12.18;6.35;;;;;;;23.73;49.82;99653.38;5090269;28;20035;-24
2021/07/16 02:25:31;;;;;;;11.35;5.65;;;;;;;23.22;51.14;99654.78;5090472;28;20032;-24
2021/07/16 02:28:08;;;;;;;12.90;5.88;;;;;;;22.86;52.17;99629.31;5090384;28;20085;-24
2021/07/16 02:30:34;;;;;;;9.37;5.83;;;;;;;23.10;51.04;99620.00;5072248;28;20554;-24
2021/07/16 02:32:59;;;;;;;16.05;6.65;;;;;;;23.11;51.41;99637.94;5088636;28;20366;-24
2021/07/16 02:35:25;;;;;;;15.65;5.53;;;;;;;23.33;50.87;99649.88;5072223;28;20111;-23
2021/07/16 02:37:51;;;;;;;12.50;5.88;;;;;;;23.20;50.96;99646.94;5090473;28;20028;-23
2021/07/16 02:40:17;;;;;;;10.95;5.38;;;;;;;23.58;49.88;99656.50;5090312;28;20751;-24
2021/07/16 02:42:43;;;;;;;11.38;5.55;;;;;;;23.41;50.32;99636.28;5089811;28;20114;-24
2021/07/16 02:45:12;;;;;;;14.70;6.15;;;;;;;23.45;50.69;99652.78;5090115;28;20369;-24
2021/07/16 02:47:37;;;;;;;11.00;6.43;;;;;;;23.31;50.64;99652.09;5072122;28;20035;-24
2021/07/16 02:50:13;;;;;;;15.13;7.03;;;;;;;23.24;50.94;99656.06;5090093;28;20443;-24
2021/07/16 02:52:40;;;;;;;14.45;5.45;;;;;;;22.98;51.04;99649.69;5089819;28;20487;-24
2021/07/16 02:55:05;;;;;;;12.40;5.93;;;;;;;22.69;51.61;99661.81;5071255;28;20140;-24
2021/07/16 02:57:31;;;;;;;13.63;6.15;;;;;;;22.38;52.71;99662.56;5089943;28;20050;-24
2021/07/16 02:59:57;;;;;;;10.20;5.95;;;;;;;22.00;53.81;99662.81;5071774;28;20085;-24
2021/07/16 03:02:24;;;;;;;12.55;6.28;;;;;;;21.47;55.84;99663.38;5089741;28;20081;-24
2021/07/16 03:04:50;;;;;;;14.52;5.65;;;;;;;21.53;56.07;99656.75;5070711;28;20084;-24
2021/07/16 03:07:16;;;;;;;14.93;6.00;;;;;;;21.59;55.40;99660.97;5089864;28;20035;-24
2021/07/16 03:09:42;;;;;;;10.02;5.72;;;;;;;21.99;54.92;99669.38;5055276;28;20488;-24
2021/07/16 03:12:08;;;;;;;9.43;6.10;;;;;;;21.43;56.22;99655.06;5089579;28;20036;-24
2021/07/16 03:14:33;;;;;;;11.07;5.95;;;;;;;21.49;56.25;99644.88;5089528;28;20041;-24
2021/07/16 03:16:59;;;;;;;10.52;5.57;;;;;;;21.34;56.63;99645.16;5088277;28;20521;-24
2021/07/16 03:19:24;;;;;;;13.02;6.25;;;;;;;21.50;56.25;99662.78;5089378;28;20545;-24
2021/07/16 03:21:50;;;;;;;11.10;5.60;;;;;;;21.90;55.34;99662.25;5071410;28;20031;-24
2021/07/16 03:24:15;;;;;;;15.68;6.10;;;;;;;22.75;55.30;99668.75;5071517;28;20036;-24
2021/07/16 03:26:41;;;;;;;13.30;6.30;;;;;;;23.34;53.67;99662.38;5087980;28;20030;-24
2021/07/16 03:29:06;;;;;;;14.43;6.47;;;;;;;23.87;51.67;99675.06;5088842;28;20085;-24
2021/07/16 03:31:32;;;;;;;15.00;6.50;;;;;;;23.85;51.24;99671.84;5088200;28;20086;-24
2021/07/16 03:33:57;;;;;;;28.52;6.82;;;;;;;24.09;50.38;99681.47;5087691;28;20396;-24
2021/07/16 03:36:23;;;;;;;14.93;5.88;;;;;;;24.10;50.33;99677.66;5087860;28;20039;-24
2021/07/16 03:38:51;;;;;;;15.48;5.07;;;;;;;24.37;49.48;99685.50;5088371;28;20032;-24
2021/07/16 03:41:17;;;;;;;14.65;5.40;;;;;;;24.21;49.43;99668.03;5088528;28;20038;-24
2021/07/16 03:43:42;;;;;;;9.82;5.30;;;;;;;24.37;49.24;99680.06;5088478;28;20032;-24
2021/07/16 03:46:08;;;;;;;12.50;5.82;;;;;;;24.01;49.67;99677.66;5087690;28;20032;-24
2021/07/16 03:48:33;;;;;;;10.30;5.45;;;;;;;23.84;50.20;99692.00;5088375;28;20043;-24
2021/07/16 03:50:59;;;;;;;14.70;5.65;;;;;;;23.95;49.60;99676.19;5088921;28;20805;-24
2021/07/16 03:53:24;;;;;;;10.07;5.78;;;;;;;24.02;49.94;99703.75;5088442;28;20071;-24
2021/07/16 03:55:50;;;;;;;15.55;5.93;;;;;;;24.19;49.50;99689.34;5088713;28;20024;-24
2021/07/16 03:58:15;;;;;;;15.07;6.35;;;;;;;24.36;49.25;99710.38;5070376;28;20086;-24
2021/07/16 04:00:41;;;;;;;11.57;5.38;;;;;;;24.44;48.99;99698.69;5088292;28;20054;-24
2021/07/16 04:03:06;;;;;;;15.13;5.88;;;;;;;24.25;49.69;99690.78;5088700;28;20039;-24
2021/07/16 04:05:33;;;;;;;14.57;5.72;;;;;;;24.43;49.17;99692.41;5088502;28;20484;-24
2021/07/16 04:08:06;;;;;;;10.52;5.93;;;;;;;24.46;48.81;99702.69;5088500;28;20024;-24
2021/07/16 04:10:33;;;;;;;14.98;6.53;;;;;;;24.45;48.85;99683.91;5088570;28;20039;-24
2021/07/16 04:13:05;;;;;;;12.50;5.40;;;;;;;24.43;49.21;99694.34;5088150;28;20067;-24
2021/07/16 04:15:30;;;;;;;12.30;5.10;;;;;;;24.49;48.20;99686.81;5088246;28;20113;-24
2021/07/16 04:17:58;;;;;;;8.15;5.05;;;;;;;24.49;49.54;99694.97;5088773;28;20801;-24
2021/07/16 04:20:24;;;;;;;10.73;4.93;;;;;;;24.61;48.72;99684.25;5088580;28;20024;-24
2021/07/16 04:22:49;;;;;;;18.98;8.40;;;;;;;24.66;49.23;99686.81;5087975;28;20719;-24
2021/07/16 04:25:19;;;;;;;17.08;6.20;;;;;;;24.69;49.11;99688.91;5088565;28;20034;-24
2021/07/16 04:27:45;;;;;;;12.38;5.22;;;;;;;24.61;49.41;99693.22;5088579;28;20550;-24
2021/07/16 04:30:11;;;;;;;10.00;5.55;;;;;;;24.45;50.13;99673.81;5088192;28;20035;-24
2021/07/16 04:32:40;;;;;;;13.18;6.20;;;;;;;24.54;50.51;99697.56;5088256;28;20036;-24
2021/07/16 04:35:06;;;;;;;19.23;7.65;;;;;;;24.62;49.89;99699.47;5088590;28;20032;-24
2021/07/16 04:37:31;;;;;;;12.32;5.72;;;;;;;24.67;49.99;99696.59;5088066;28;20035;-24
2021/07/16 04:39:57;;;;;;;14.75;7.03;;;;;;;24.59;49.96;99700.94;5087891;28;20028;-24
2021/07/16 04:42:22;;;;;;;14.85;6.40;;;;;;;24.66;50.25;99714.06;5088048;28;20036;-24
2021/07/16 04:44:49;;;;;;;12.90;6.28;;;;;;;24.49;50.44;99695.78;5087560;28;20028;-24
2021/07/16 04:47:14;;;;;;;10.00;5.63;;;;;;;24.40;50.34;99687.59;5087828;28;20039;-24
2021/07/16 04:49:40;;;;;;;10.52;5.97;;;;;;;24.97;49.40;99694.81;5087620;28;20047;-24
2021/07/16 04:52:05;;;;;;;12.35;6.30;;;;;;;24.89;49.10;99694.78;5087576;28;20040;-24
2021/07/16 04:54:31;;;;;;;13.13;6.15;;;;;;;24.86;50.02;99712.63;5087780;28;20056;-24
2021/07/16 04:56:56;;;;;;;14.15;6.18;;;;;;;24.85;49.94;99687.28;5087465;28;20037;-24
2021/07/16 04:59:22;;;;;;;12.80;6.30;;;;;;;24.75;50.02;99703.19;5087487;28;20043;-24
2021/07/16 05:01:48;;;;;;;17.38;6.18;;;;;;;25.25;48.37;99708.88;5087576;28;20028;-24
2021/07/16 05:04:14;;;;;;;10.02;6.10;;;;;;;25.25;48.39;99700.69;5087498;28;20032;-24
2021/07/16 05:06:39;;;;;;;10.18;5.80;;;;;;;25.48;47.89;99707.81;5087582;28;20031;-24
2021/07/16 05:09:05;;;;;;;9.95;5.78;;;;;;;25.16;48.99;99712.72;5086273;28;20039;-24
2021/07/16 05:11:31;;;;;;;12.50;6.25;;;;;;;24.90;49.08;99688.22;5087517;28;20414;-24
2021/07/16 05:13:56;;;;;;;11.75;5.82;;;;;;;25.11;48.73;99699.25;5087629;28;20035;-24
2021/07/16 05:16:22;;;;;;;8.65;5.60;;;;;;;25.32;47.45;99705.66;5087372;28;20399;-24
2021/07/16 05:18:47;;;;;;;9.90;5.93;;;;;;;25.25;48.19;99705.34;5087488;28;20040;-24
2021/07/16 05:21:13;;;;;;;10.18;6.28;;;;;;;24.98;49.03;99701.84;5087076;28;20051;-24
2021/07/16 05:23:38;;;;;;;13.23;6.50;;;;;;;25.17;47.10;99701.50;5087154;28;20084;-24
2021/07/16 05:26:04;;;;;;;12.65;6.60;;;;;;;25.44;45.34;99680.41;5087696;28;20035;-24
2021/07/16 05:28:30;;;;;;;12.00;5.95;;;;;;;25.59;45.67;99688.03;5087065;28;20434;-24
2021/07/16 05:30:55;;;;;;;14.20;6.78;;;;;;;25.65;46.59;99697.63;5086973;28;20047;-24
2021/07/16 05:33:21;;;;;;;13.25;6.07;;;;;;;25.18;46.94;99700.34;5087329;28;20032;-24
2021/07/16 05:35:46;;;;;;;13.02;6.65;;;;;;;25.48;46.41;99697.72;5086972;28;20040;-24
2021/07/16 05:38:12;;;;;;;11.68;7.15;;;;;;;24.93;47.21;99698.47;5087138;28;20036;-24
2021/07/16 05:40:38;;;;;;;11.13;6.80;;;;;;;25.30;47.44;99704.38;5086968;28;20777;-24
2021/07/16 05:43:07;;;;;;;12.95;7.20;;;;;;;25.66;47.00;99699.25;5086808;28;20154;-24
2021/07/16 05:45:33;;;;;;;12.88;7.35;;;;;;;25.19;48.25;99691.06;5087107;28;20024;-24
2021/07/16 05:48:00;;;;;;;29.08;17.67;;;;;;;25.39;46.20;99707.88;5087344;28;20399;-24
2021/07/16 05:50:26;;;;;;;27.75;19.55;;;;;;;25.50;45.33;99679.09;5087015;28;20032;-24
2021/07/16 05:52:52;;;;;;;23.67;15.68;;;;;;;25.44;46.16;99697.56;5086561;28;20067;-24
2021/07/16 05:55:17;;;;;;;21.17;12.18;;;;;;;25.76;46.55;99697.25;5086769;28;20081;-24
2021/07/16 05:57:42;;;;;;;16.63;8.23;;;;;;;25.57;46.26;99690.28;5086971;28;20032;-24
2021/07/16 06:00:08;;;;;;;14.63;8.45;;;;;;;25.92;45.48;99683.88;5087332;28;20039;-24
2021/07/16 06:02:34;;;;;;;13.85;8.75;;;;;;;25.79;45.72;99685.69;5086933;28;20032;-24
2021/07/16 06:04:59;;;;;;;11.85;7.53;;;;;;;25.98;45.20;99701.66;5086976;28;20036;-24
2021/07/16 06:07:25;;;;;;;17.33;8.20;;;;;;;26.11;46.41;99692.41;5086892;28;20443;-24
2021/07/16 06:09:50;;;;;;;13.68;8.05;;;;;;;26.21;45.42;99697.47;5086815;28;20024;-24
2021/07/16 06:12:16;;;;;;;15.15;8.90;;;;;;;25.94;44.92;99698.78;5086876;28;20089;-24
2021/07/16 06:14:42;;;;;;;14.07;8.05;;;;;;;26.08;43.87;99692.28;5086626;28;20024;-24
2021/07/16 06:17:08;;;;;;;12.45;7.25;;;;;;;26.46;43.74;99681.22;5086821;28;20024;-24
2021/07/16 06:19:33;;;;;;;13.50;6.93;;;;;;;26.68;44.47;99699.22;5086984;28;20032;-24
2021/07/16 06:21:59;;;;;;;29.95;15.82;;;;;;;26.52;42.13;99695.47;5090599;28;20140;-24
2021/07/16 06:24:24;;;;;;;34.10;22.42;;;;;;;26.37;42.85;99699.63;5090459;28;20024;-24
2021/07/16 06:26:50;;;;;;;15.88;9.57;;;;;;;26.02;45.71;99697.94;5090167;28;20032;-24
2021/07/16 06:29:15;;;;;;;17.38;9.75;;;;;;;25.82;44.50;99693.22;5090523;28;20039;-24
2021/07/16 06:31:41;;;;;;;21.30;9.50;;;;;;;26.58;42.83;99694.16;5090312;28;20043;-24
2021/07/16 06:34:06;;;;;;;15.35;6.10;;;;;;;26.95;42.09;99691.56;5090245;28;20028;-24
2021/07/16 06:36:31;;;;;;;12.15;5.95;;;;;;;26.98;42.48;99690.88;5090393;28;20408;-24
2021/07/16 06:38:57;;;;;;;18.38;10.00;;;;;;;26.71;42.87;99676.69;5090128;28;20028;-24
2021/07/16 06:41:22;;;;;;;18.98;10.25;;;;;;;27.31;41.33;99690.06;5090210;28;20517;-24
2021/07/16 06:43:48;;;;;;;16.77;8.20;;;;;;;27.53;41.58;99678.66;5090212;28;20039;-24
2021/07/16 06:46:14;;;;;;;18.27;9.93;;;;;;;28.00;40.61;99678.19;5090163;28;20032;-24
2021/07/16 06:48:43;;;;;;;11.27;5.80;;;;;;;27.72;41.42;99680.03;5089934;28;20521;-24
2021/07/16 06:51:11;;;;;;;13.38;6.20;;;;;;;27.88;41.29;99666.47;5089749;28;20064;-24
2021/07/16 06:53:37;;;;;;;15.57;7.32;;;;;;;27.82;40.60;99674.09;5089812;28;20458;-24
2021/07/16 06:56:03;;;;;;;12.80;6.68;;;;;;;27.63;41.22;99664.50;5089709;28;20024;-24
2021/07/16 06:58:29;;;;;;;11.70;5.88;;;;;;;27.71;42.60;99687.47;5090034;28;20064;-24
2021/07/16 07:00:54;;;;;;;11.95;5.55;;;;;;;27.81;40.24;99661.53;5089620;28;20440;-24
2021/07/16 07:03:25;;;;;;;11.27;5.40;;;;;;;27.71;40.76;99673.75;5089500;28;20458;-24
2021/07/16 07:05:51;;;;;;;13.23;5.97;;;;;;;28.05;40.94;99672.50;5089918;28;20020;-22
2021/07/16 07:08:17;;;;;;;35.20;7.85;;;;;;;28.24;39.96;99665.59;5089707;28;20071;-23
2021/07/16 07:10:43;;;;;;;9.77;5.72;;;;;;;27.92;40.19;99656.41;5089390;28;20032;-23
2021/07/16 07:13:09;;;;;;;14.23;6.13;;;;;;;27.85;40.69;99662.47;5089708;28;20055;-23
2021/07/16 07:15:36;;;;;;;11.07;5.75;;;;;;;28.05;40.24;99664.28;5089317;28;20024;-23
2021/07/16 07:18:05;;;;;;;10.13;6.13;;;;;;;28.03;40.44;99666.56;5089378;28;20132;-22
2021/07/16 07:20:31;;;;;;;12.95;5.22;;;;;;;28.25;40.28;99664.44;5089860;28;20169;-22
2021/07/16 07:22:56;;;;;;;9.10;5.22;;;;;;;28.42;39.43;99669.63;5071057;28;20470;-23
2021/07/16 07:25:21;;;;;;;11.73;5.10;;;;;;;28.38;38.00;99651.47;5089797;28;20056;-23
2021/07/16 07:27:47;;;;;;;10.57;5.50;;;;;;;28.72;40.69;99654.78;5089475;28;20042;-23
2021/07/16 07:30:13;;;;;;;12.98;5.15;;;;;;;29.12;36.68;99653.91;5089118;28;20059;-23
2021/07/16 07:32:38;;;;;;;10.65;5.05;;;;;;;29.46;37.80;99649.63;5088497;28;20024;-23
2021/07/16 07:35:05;;;;;;;16.75;5.07;;;;;;;29.43;37.71;99642.09;5088923;28;20032;-23
2021/07/16 07:37:30;;;;;;;11.40;5.07;;;;;;;29.36;38.94;99644.66;5088974;28;20024;-23
2021/07/16 07:39:56;;;;;;;12.02;4.72;;;;;;;29.10;37.97;99643.25;5089189;28;20404;-23
2021/07/16 07:42:23;;;;;;;8.55;5.00;;;;;;;28.96;40.38;99654.66;5089192;28;20480;-22
2021/07/16 07:44:48;;;;;;;15.25;5.30;;;;;;;29.19;38.55;99651.31;5088777;28;20038;-23
2021/07/16 07:47:14;;;;;;;8.50;4.53;;;;;;;28.89;37.23;99629.78;5070858;28;20419;-23
2021/07/16 07:49:39;;;;;;;9.60;4.45;;;;;;;29.17;38.23;99637.94;5088887;28;20032;-23
2021/07/16 07:52:06;;;;;;;8.50;4.40;;;;;;;29.44;36.92;99643.69;5088857;28;20093;-23
2021/07/16 07:54:32;;;;;;;13.27;4.78;;;;;;;29.82;35.87;99650.47;5088486;28;20059;-23
2021/07/16 07:56:58;;;;;;;13.60;4.50;;;;;;;30.00;35.17;99635.16;5088622;28;20032;-23
2021/07/16 07:59:25;;;;;;;9.52;5.28;;;;;;;29.87;35.29;99650.19;5088484;28;20028;-23
2021/07/16 08:01:50;;;;;;;11.63;4.50;;;;;;;29.75;36.09;99645.63;5088635;28;20032;-22
2021/07/16 08:04:17;;;;;;;10.18;4.50;;;;;;;29.31;36.85;99647.69;5088546;28;20098;-22
2021/07/16 08:06:43;;;;;;;10.32;4.38;;;;;;;29.62;36.24;99636.66;5088180;28;20032;-22
2021/07/16 08:09:08;;;;;;;10.23;4.45;;;;;;;29.47;36.61;99634.75;5088526;28;20048;-23
2021/07/16 08:11:34;;;;;;;11.38;4.90;;;;;;;29.91;34.03;99623.56;5088343;28;20035;-23
2021/07/16 08:13:59;;;;;;;10.38;4.15;;;;;;;29.99;35.14;99627.28;5088476;28;20139;-23
2021/07/16 08:16:25;;;;;;;9.93;4.18;;;;;;;30.20;34.85;99637.94;5088314;28;20032;-22
2021/07/16 08:18:50;;;;;;;8.60;4.25;;;;;;;30.17;35.71;99606.44;5088131;28;20028;-23
2021/07/16 08:21:16;;;;;;;10.68;3.92;;;;;;;30.46;35.94;99622.75;5088595;28;20048;-22
2021/07/16 08:23:41;;;;;;;9.90;4.20;;;;;;;30.83;35.52;99603.75;5088555;28;20032;-22
2021/07/16 08:26:07;;;;;;;10.18;4.43;;;;;;;31.07;33.77;99619.13;5088371;28;20024;-22
2021/07/16 08:28:32;;;;;;;14.70;4.40;;;;;;;30.57;34.09;99612.75;5088486;28;20403;-22
2021/07/16 08:30:58;;;;;;;11.73;4.05;;;;;;;31.06;34.53;99612.06;5087955;28;20024;-22
2021/07/16 08:33:23;;;;;;;12.73;4.35;;;;;;;31.71;32.58;99607.53;5087984;28;20423;-22
2021/07/16 08:35:49;;;;;;;10.32;4.13;;;;;;;31.53;32.43;99608.06;5088122;28;20024;-22
2021/07/16 08:38:14;;;;;;;7.75;4.13;;;;;;;31.24;33.59;99602.13;5088067;28;20040;-22
2021/07/16 08:40:40;;;;;;;9.60;3.55;;;;;;;31.06;32.67;99595.53;5087643;28;20027;-22
2021/07/16 08:43:06;;;;;;;9.15;4.10;;;;;;;31.50;31.95;99613.53;5067988;28;20036;-22
2021/07/16 08:45:31;;;;;;;6.80;3.72;;;;;;;31.42;33.32;99607.09;5052812;28;20036;-22
2021/07/16 08:47:57;;;;;;;6.75;3.78;;;;;;;31.63;32.26;99606.66;5088125;28;20032;-23
2021/07/16 08:50:23;;;;;;;9.35;4.00;;;;;;;31.29;32.16;99612.00;5069843;28;20101;-22
2021/07/16 08:52:49;;;;;;;9.77;3.88;;;;;;;31.35;32.42;99601.47;5087484;28;20040;-22
2021/07/16 08:55:15;;;;;;;14.27;4.03;;;;;;;31.40;31.04;99577.13;5087443;28;20135;-22
2021/07/16 08:57:41;;;;;;;8.60;3.92;;;;;;;31.54;32.67;99600.59;5087694;28;20024;-22
2021/07/16 09:00:10;;;;;;;8.70;4.25;;;;;;;31.77;32.71;99600.50;5087655;28;20089;-22
2021/07/16 09:02:49;;;;;;;13.93;4.10;;;;;;;31.65;31.37;99590.53;5086103;28;20036;-22
2021/07/16 09:05:15;;;;;;;10.25;4.88;;;;;;;31.74;30.91;99573.72;5087500;28;20110;-23
2021/07/16 09:07:48;;;;;;;10.50;3.90;;;;;;;32.29;29.34;99587.78;5087398;28;20028;-22
2021/07/16 09:10:13;;;;;;;9.10;4.75;;;;;;;32.42;29.83;99575.31;5087366;28;20039;-23
2021/07/16 09:12:39;;;;;;;8.75;3.40;;;;;;;32.34;29.23;99583.88;5069375;28;20085;-22
2021/07/16 09:15:12;;;;;;;8.13;3.63;;;;;;;32.67;28.24;99594.09;5087339;28;20136;-22
2021/07/16 09:17:42;;;;;;;8.10;3.60;;;;;;;32.49;27.70;99573.78;5087444;28;20024;-22
2021/07/16 09:20:09;;;;;;;7.35;3.50;;;;;;;32.94;28.69;99578.19;5087364;28;20031;-22
2021/07/16 09:22:35;;;;;;;6.70;3.20;;;;;;;33.27;27.76;99578.47;5087372;28;20028;-22
2021/07/16 09:25:04;;;;;;;7.45;4.40;;;;;;;33.06;26.49;99574.34;5086948;28;20028;-22
2021/07/16 09:27:40;;;;;;;6.57;3.10;;;;;;;33.04;26.44;99587.75;5087410;28;20032;-22
2021/07/16 09:30:24;;;;;;;8.27;3.40;;;;;;;33.08;26.55;99569.25;5086955;28;20054;-22
2021/07/16 09:33:00;;;;;;;7.60;3.30;;;;;;;33.01;28.20;99569.94;5087007;28;20032;-22
2021/07/16 09:35:27;;;;;;;7.40;3.83;;;;;;;32.58;28.59;99560.50;5086840;28;20028;-22
2021/07/16 09:37:59;;;;;;;8.68;2.90;;;;;;;32.65;28.41;99574.38;5087075;28;20071;-22
2021/07/16 09:40:28;;;;;;;9.13;3.40;;;;;;;33.42;27.81;99572.63;5087280;28;20140;-22
2021/07/16 09:43:02;;;;;;;4.63;3.00;;;;;;;33.02;27.57;99579.03;5087175;28;20527;-22
2021/07/16 09:45:27;;;;;;;10.02;4.25;;;;;;;33.26;27.03;99571.34;5086898;28;20115;-22
2021/07/16 09:47:53;;;;;;;9.55;3.55;;;;;;;33.58;26.40;99566.00;5087007;28;20032;-22
2021/07/16 09:50:21;;;;;;;7.10;3.60;;;;;;;33.35;27.23;99563.50;5068895;28;20036;-23
2021/07/16 09:52:47;;;;;;;6.78;3.67;;;;;;;33.33;28.63;99563.09;5052608;28;20032;-22
2021/07/16 09:55:18;;;;;;;7.97;4.03;;;;;;;33.86;28.62;99554.31;5069816;28;20504;-22
2021/07/16 09:57:48;;;;;;;9.93;3.83;;;;;;;33.67;27.18;99543.56;5091194;28;20058;-22
2021/07/16 10:00:21;;;;;;;11.68;4.35;;;;;;;34.15;26.44;99558.00;5090944;28;20046;-23
2021/07/16 10:02:48;;;;;;;6.68;4.00;;;;;;;34.16;26.54;99542.97;5090853;28;20510;-23
2021/07/16 10:05:14;;;;;;;10.63;4.13;;;;;;;34.24;25.24;99535.47;5090858;28;20445;-22
2021/07/16 10:07:43;;;;;;;12.23;4.13;;;;;;;34.65;25.81;99549.00;5090367;28;20557;-23
2021/07/16 10:10:19;;;;;;;10.18;4.10;;;;;;;34.71;25.85;99541.09;5091009;28;20032;-22
2021/07/16 10:12:45;;;;;;;8.25;3.83;;;;;;;34.67;25.30;99530.00;5090489;28;20402;-22
2021/07/16 10:15:12;;;;;;;8.30;4.20;;;;;;;34.74;24.99;99541.09;5089608;28;20499;-22
2021/07/16 10:17:38;;;;;;;10.70;3.95;;;;;;;34.19;25.44;99531.13;5090596;28;20552;-22
2021/07/16 10:20:08;;;;;;;9.93;3.42;;;;;;;35.05;24.16;99538.69;5090663;28;20028;-22
2021/07/16 10:22:33;;;;;;;9.50;3.85;;;;;;;34.88;26.13;99533.94;5072841;28;20038;-22
2021/07/16 10:24:58;;;;;;;11.02;4.00;;;;;;;35.01;23.98;99532.38;5055757;28;20036;-22
2021/07/16 10:27:24;;;;;;;9.15;3.63;;;;;;;34.66;23.56;99528.44;5072454;28;20089;-22
2021/07/16 10:29:49;;;;;;;9.40;3.65;;;;;;;35.00;23.09;99536.31;5055847;28;20028;-22
2021/07/16 10:32:49;;;;;;;7.85;4.35;;;;;;;35.09;23.65;99517.31;5072474;28;20403;-22
2021/07/16 10:35:21;;;;;;;11.95;3.88;;;;;;;35.21;24.04;99510.59;5090638;28;20074;-22
2021/07/16 10:37:48;;;;;;;8.25;4.10;;;;;;;35.03;24.15;99513.38;5090195;28;20113;-22
2021/07/16 10:40:35;;;;;;;9.55;4.10;;;;;;;35.26;22.97;99495.53;5090842;28;20399;-22
2021/07/16 10:43:01;;;;;;;11.38;4.18;;;;;;;35.39;22.92;99507.75;5089911;28;20086;-22
2021/07/16 10:45:31;;;;;;;9.10;4.07;;;;;;;35.28;21.71;99507.78;5090368;28;20092;-22
2021/07/16 10:48:09;;;;;;;10.73;4.53;;;;;;;35.45;21.96;99502.59;5090103;28;20093;-22
2021/07/16 10:50:37;;;;;;;9.30;4.15;;;;;;;35.59;22.57;99503.34;5090042;28;20027;-22
2021/07/16 10:53:02;;;;;;;8.10;4.55;;;;;;;35.50;22.07;99494.66;5089596;28;20043;-22
2021/07/16 10:55:37;;;;;;;10.10;4.20;;;;;;;35.65;22.48;99502.91;5071265;28;20127;-23
2021/07/16 10:58:34;;;;;;;8.07;4.47;;;;;;;35.88;22.14;99494.91;5089751;28;20024;-22
2021/07/16 11:01:02;;;;;;;9.73;4.53;;;;;;;35.72;22.59;99489.81;5061418;28;20484;-22
2021/07/16 11:03:39;;;;;;;13.05;4.53;;;;;;;36.19;22.41;99487.59;5089683;28;20111;-22
2021/07/16 11:06:04;;;;;;;;;;;;;;;36.42;21.68;99493.78;5089288;28;20400;-22
2021/07/16 11:08:36;;;;;;;14.50;4.80;;;;;;;36.43;23.10;99481.47;5089475;28;19912;-22
2021/07/16 11:11:21;;;;;;;12.32;4.93;;;;;;;36.27;22.18;99482.78;5089347;28;20028;-23
2021/07/16 11:13:56;;;;;;;8.23;4.78;;;;;;;36.67;21.10;99488.03;5089630;28;20028;-22
2021/07/16 11:16:25;;;;;;;7.95;4.30;;;;;;;35.86;21.97;99480.66;5089573;28;20028;-22
2021/07/16 11:18:52;;;;;;;9.98;4.85;;;;;;;36.11;21.24;99479.69;5089076;28;20101;-22
2021/07/16 11:21:42;;;;;;;9.77;4.63;;;;;;;36.61;21.02;99473.78;5089355;28;20043;-22
2021/07/16 11:24:20;;;;;;;10.27;4.68;;;;;;;36.29;22.45;99469.28;5089460;28;20020;-22
2021/07/16 11:26:56;;;;;;;8.35;4.50;;;;;;;36.82;21.19;99461.72;5089006;28;20047;-22
2021/07/16 11:29:24;;;;;;;12.50;4.38;;;;;;;37.30;20.53;99458.03;5089266;28;20031;-22